createdAt,value
2023-01-29T00:00:10.182Z,82.31
2023-01-29T00:01:11.991Z,82.22
2023-01-29T00:02:13.676Z,82.42
2023-01-29T00:03:16.199Z,82.32
2023-01-29T00:04:18.066Z,82.24
2023-01-29T00:05:28.340Z,82.29
2023-01-29T00:06:30.819Z,82.53
2023-01-29T00:07:32.595Z,82.37
2023-01-29T00:08:35.456Z,82.30
2023-01-29T00:09:37.177Z,82.17
2023-01-29T00:10:38.751Z,82.04
2023-01-29T00:11:40.475Z,81.79
2023-01-29T00:12:42.112Z,81.76
2023-01-29T00:13:44.173Z,81.77
2023-01-29T00:14:45.783Z,81.78
2023-01-29T00:15:55.019Z,81.72
2023-01-29T00:16:56.689Z,81.84
2023-01-29T00:17:58.331Z,81.98
2023-01-29T00:19:01.788Z,82.20
2023-01-29T00:20:03.438Z,82.08
2023-01-29T00:21:11.936Z,81.89
2023-01-29T00:22:13.579Z,81.82
2023-01-29T00:23:15.556Z,81.65
2023-01-29T00:24:17.252Z,81.72
2023-01-29T00:25:18.866Z,81.62
2023-01-29T00:26:21.203Z,81.77
2023-01-29T00:27:22.803Z,81.94
2023-01-29T00:28:24.384Z,82.08
2023-01-29T00:29:26.839Z,82.21
2023-01-29T00:30:28.440Z,82.06
2023-01-29T00:31:30.636Z,82.12
2023-01-29T00:32:32.453Z,81.90
2023-01-29T00:33:34.064Z,81.61
2023-01-29T00:34:36.187Z,81.67
2023-01-29T00:35:39.641Z,81.62
2023-01-29T00:36:41.330Z,81.90
2023-01-29T00:37:42.906Z,81.78
2023-01-29T00:38:44.685Z,81.96
2023-01-29T00:39:48.362Z,82.07
2023-01-29T00:41:08.507Z,82.36
2023-01-29T00:42:28.399Z,82.20
2023-01-29T00:43:48.704Z,82.03
2023-01-29T00:44:59.179Z,82.09
2023-01-29T00:46:00.809Z,81.98
2023-01-29T00:47:02.612Z,82.07
2023-01-29T00:48:04.578Z,82.02
2023-01-29T00:49:06.455Z,81.93
2023-01-29T00:50:11.633Z,82.00
2023-01-29T00:51:13.227Z,82.08
2023-01-29T00:52:26.657Z,82.19
2023-01-29T00:53:28.353Z,82.36
2023-01-29T00:54:31.894Z,82.31
2023-01-29T00:55:34.503Z,82.03
2023-01-29T00:56:36.658Z,82.24
2023-01-29T00:57:38.612Z,82.37
2023-01-29T00:58:40.208Z,82.37
2023-01-29T00:59:41.879Z,82.47
2023-01-29T01:00:43.521Z,82.35
2023-01-29T01:02:03.729Z,82.31
2023-01-29T01:03:08.102Z,82.51
2023-01-29T01:04:10.558Z,82.80
2023-01-29T01:05:18.327Z,83.05
2023-01-29T01:06:20.207Z,83.01
2023-01-29T01:07:21.829Z,82.94
2023-01-29T01:08:42.118Z,82.74
2023-01-29T01:10:01.930Z,82.64
2023-01-29T01:11:05.275Z,82.70
2023-01-29T01:12:06.868Z,82.69
2023-01-29T01:13:08.472Z,82.76
2023-01-29T01:14:10.063Z,82.83
2023-01-29T01:15:11.907Z,82.87
2023-01-29T01:16:14.792Z,82.86
2023-01-29T01:17:16.485Z,82.67
2023-01-29T01:18:20.640Z,82.74
2023-01-29T01:19:22.267Z,82.89
2023-01-29T01:20:24.761Z,82.80
2023-01-29T01:21:26.368Z,82.54
2023-01-29T01:22:28.048Z,82.54
2023-01-29T01:23:29.648Z,82.35
2023-01-29T01:24:31.620Z,82.40
2023-01-29T01:25:33.230Z,82.47
2023-01-29T01:26:35.105Z,82.76
2023-01-29T01:27:41.008Z,83.00
2023-01-29T01:28:42.639Z,83.28
2023-01-29T01:29:44.224Z,83.28
2023-01-29T01:30:45.981Z,83.12
2023-01-29T01:31:47.722Z,83.00
2023-01-29T01:32:49.461Z,83.04
2023-01-29T01:33:51.703Z,83.07
2023-01-29T01:34:53.746Z,82.91
2023-01-29T01:35:55.430Z,82.73
2023-01-29T01:36:57.225Z,82.82
2023-01-29T01:37:58.807Z,82.76
2023-01-29T01:39:00.449Z,83.43
2023-01-29T01:40:03.163Z,83.55
2023-01-29T01:41:04.743Z,83.74
2023-01-29T01:42:11.113Z,83.74
2023-01-29T01:43:12.779Z,83.65
2023-01-29T01:44:50.551Z,83.78
2023-01-29T01:45:52.270Z,83.88
2023-01-29T01:46:53.905Z,83.79
2023-01-29T01:48:25.072Z,84.19
2023-01-29T01:49:26.756Z,84.10
2023-01-29T01:50:40.323Z,84.07
2023-01-29T01:51:49.686Z,84.06
2023-01-29T01:52:53.361Z,84.20
2023-01-29T01:54:02.095Z,84.25
2023-01-29T01:55:03.908Z,84.49
2023-01-29T01:56:09.280Z,84.28
2023-01-29T01:57:16.049Z,84.06
2023-01-29T01:58:26.054Z,84.19
2023-01-29T01:59:27.650Z,84.21
2023-01-29T02:00:29.315Z,84.37
2023-01-29T02:01:30.894Z,84.13
2023-01-29T02:02:50.812Z,84.24
2023-01-29T02:04:32.363Z,84.24
2023-01-29T02:05:53.007Z,83.97
2023-01-29T02:07:13.388Z,84.04
2023-01-29T02:08:33.892Z,83.95
2023-01-29T02:09:39.612Z,83.73
2023-01-29T02:10:46.286Z,83.72
2023-01-29T02:11:47.827Z,83.67
2023-01-29T02:12:49.446Z,83.66
2023-01-29T02:13:53.846Z,83.72
2023-01-29T02:14:55.450Z,83.33
2023-01-29T02:15:57.110Z,83.43
2023-01-29T02:17:01.414Z,83.51
2023-01-29T02:18:03.142Z,83.67
2023-01-29T02:19:06.127Z,83.58
2023-01-29T02:20:29.453Z,83.56
2023-01-29T02:21:42.926Z,83.53
2023-01-29T02:23:05.888Z,83.58
2023-01-29T02:24:10.665Z,83.44
2023-01-29T02:25:26.451Z,83.50
2023-01-29T02:26:52.729Z,83.32
2023-01-29T02:28:07.433Z,83.51
2023-01-29T02:29:22.759Z,83.28
2023-01-29T02:30:36.534Z,83.33
2023-01-29T02:31:45.185Z,83.51
2023-01-29T02:32:58.727Z,83.07
2023-01-29T02:34:30.203Z,83.03
2023-01-29T02:35:38.297Z,83.18
2023-01-29T02:36:48.793Z,82.92
2023-01-29T02:38:27.135Z,82.94
2023-01-29T02:39:37.997Z,82.71
2023-01-29T02:40:54.864Z,82.51
2023-01-29T02:42:12.019Z,83.12
2023-01-29T02:43:19.326Z,82.78
2023-01-29T02:44:24.799Z,82.54
2023-01-29T02:45:53.717Z,82.33
2023-01-29T02:46:58.752Z,82.17
2023-01-29T02:48:01.540Z,82.34
2023-01-29T02:49:15.528Z,82.24
2023-01-29T02:50:22.519Z,82.23
2023-01-29T02:51:34.666Z,82.13
2023-01-29T02:52:59.644Z,82.07
2023-01-29T02:54:33.671Z,82.24
2023-01-29T02:55:38.795Z,82.20
2023-01-29T02:57:02.549Z,82.11
2023-01-29T02:58:33.506Z,82.34
2023-01-29T02:59:38.472Z,82.13
2023-01-29T03:00:42.867Z,82.14
2023-01-29T03:01:58.615Z,82.41
2023-01-29T03:03:17.931Z,82.13
2023-01-29T03:04:26.946Z,82.16
2023-01-29T03:05:34.256Z,82.54
2023-01-29T03:06:38.888Z,82.46
2023-01-29T03:07:44.749Z,82.07
2023-01-29T03:08:50.242Z,81.82
2023-01-29T03:09:51.894Z,81.91
2023-01-29T03:10:57.803Z,82.00
2023-01-29T03:12:19.965Z,82.04
2023-01-29T03:13:47.902Z,81.84
2023-01-29T03:15:08.622Z,81.73
2023-01-29T03:16:19.308Z,81.86
2023-01-29T03:17:22.381Z,82.00
2023-01-29T03:18:27.825Z,82.15
2023-01-29T03:19:36.300Z,82.01
2023-01-29T03:21:26.205Z,81.71
2023-01-29T03:22:27.960Z,81.28
2023-01-29T03:23:50.194Z,81.14
2023-01-29T03:25:15.548Z,81.17
2023-01-29T03:26:35.955Z,81.34
2023-01-29T03:28:04.510Z,81.33
2023-01-29T03:29:24.415Z,81.09
2023-01-29T03:30:44.834Z,80.88
2023-01-29T03:32:08.284Z,80.91
2023-01-29T03:33:10.611Z,81.41
2023-01-29T03:34:24.795Z,81.21
2023-01-29T03:35:36.862Z,81.19
2023-01-29T03:36:45.899Z,81.08
2023-01-29T03:37:48.069Z,81.07
2023-01-29T03:38:49.749Z,80.88
2023-01-29T03:39:51.324Z,81.16
2023-01-29T03:40:54.985Z,81.26
2023-01-29T03:42:01.354Z,81.33
2023-01-29T03:43:08.466Z,81.07
2023-01-29T03:44:12.980Z,81.28
2023-01-29T03:45:32.103Z,81.51
2023-01-29T03:46:52.345Z,81.26
2023-01-29T03:48:35.533Z,81.27
2023-01-29T03:50:18.549Z,81.19
2023-01-29T03:51:40.702Z,81.00
2023-01-29T03:53:06.933Z,80.88
2023-01-29T03:54:26.956Z,80.71
2023-01-29T03:55:43.703Z,80.56
2023-01-29T03:57:07.094Z,80.38
2023-01-29T03:58:17.806Z,80.57
2023-01-29T03:59:33.918Z,80.31
2023-01-29T04:00:40.041Z,80.53
2023-01-29T04:02:03.279Z,80.38
2023-01-29T04:03:19.769Z,80.31
2023-01-29T04:04:29.018Z,80.37
2023-01-29T04:05:38.476Z,80.88
2023-01-29T04:06:40.802Z,80.58
2023-01-29T04:07:42.401Z,80.16
2023-01-29T04:08:52.667Z,80.21
2023-01-29T04:10:00.928Z,80.31
2023-01-29T04:11:06.117Z,80.05
2023-01-29T04:12:09.370Z,79.96
2023-01-29T04:13:11.864Z,79.80
2023-01-29T04:14:13.484Z,79.82
2023-01-29T04:15:15.885Z,79.73
2023-01-29T04:16:20.986Z,79.37
2023-01-29T04:17:25.081Z,79.51
2023-01-29T04:18:27.233Z,79.84
2023-01-29T04:19:28.922Z,79.49
2023-01-29T04:20:30.539Z,79.98
2023-01-29T04:21:32.949Z,79.59
2023-01-29T04:22:36.878Z,79.25
2023-01-29T04:23:38.480Z,79.27
2023-01-29T04:24:40.761Z,79.43
2023-01-29T04:25:45.085Z,79.28
2023-01-29T04:27:07.365Z,79.42
2023-01-29T04:28:22.233Z,79.08
2023-01-29T04:29:30.235Z,79.69
2023-01-29T04:30:49.538Z,79.69
2023-01-29T04:32:03.900Z,79.26
2023-01-29T04:33:16.434Z,79.22
2023-01-29T04:34:36.483Z,79.09
2023-01-29T04:35:40.775Z,79.07
2023-01-29T04:37:38.062Z,78.81
2023-01-29T04:39:22.685Z,79.07
2023-01-29T04:40:37.678Z,78.90
2023-01-29T04:41:39.221Z,78.80
2023-01-29T04:42:50.265Z,78.38
2023-01-29T04:44:18.139Z,78.88
2023-01-29T04:45:50.349Z,79.06
2023-01-29T04:47:00.896Z,79.16
2023-01-29T04:48:11.396Z,78.75
2023-01-29T04:49:23.915Z,78.66
2023-01-29T04:50:47.574Z,78.72
2023-01-29T04:52:01.993Z,78.62
2023-01-29T04:53:18.623Z,78.90
2023-01-29T04:54:49.913Z,78.96
2023-01-29T04:55:56.910Z,78.95
2023-01-29T04:57:16.373Z,78.92
2023-01-29T04:58:25.141Z,78.84
2023-01-29T04:59:33.387Z,78.81
2023-01-29T05:00:40.508Z,78.83
2023-01-29T05:01:42.750Z,79.10
2023-01-29T05:02:44.368Z,79.01
2023-01-29T05:03:48.279Z,79.33
2023-01-29T05:04:50.788Z,79.44
2023-01-29T05:05:52.839Z,79.49
2023-01-29T05:06:54.553Z,79.66
2023-01-29T05:07:56.197Z,79.69
2023-01-29T05:08:57.799Z,79.56
2023-01-29T05:09:59.477Z,79.49
2023-01-29T05:11:01.091Z,79.49
2023-01-29T05:12:02.698Z,79.74
2023-01-29T05:13:05.083Z,79.60
2023-01-29T05:14:07.309Z,79.45
2023-01-29T05:15:11.607Z,79.26
2023-01-29T05:16:25.389Z,79.57
2023-01-29T05:17:27.006Z,79.44
2023-01-29T05:18:29.524Z,80.03
2023-01-29T05:19:31.181Z,80.00
2023-01-29T05:20:33.363Z,80.10
2023-01-29T05:21:35.023Z,79.92
2023-01-29T05:22:37.949Z,80.02
2023-01-29T05:23:39.565Z,79.92
2023-01-29T05:24:41.232Z,79.89
2023-01-29T05:25:42.926Z,79.97
2023-01-29T05:27:03.702Z,79.73
2023-01-29T05:28:11.889Z,79.78
2023-01-29T05:29:13.503Z,79.73
2023-01-29T05:30:15.622Z,79.82
2023-01-29T05:31:17.611Z,79.83
2023-01-29T05:32:19.274Z,79.81
2023-01-29T05:33:30.829Z,79.97
2023-01-29T05:34:32.429Z,79.60
2023-01-29T05:35:34.849Z,79.83
2023-01-29T05:36:36.537Z,79.90
2023-01-29T05:37:38.186Z,80.01
2023-01-29T05:38:39.775Z,79.84
2023-01-29T05:39:41.378Z,80.25
2023-01-29T05:40:43.122Z,80.13
2023-01-29T05:41:44.733Z,79.73
2023-01-29T05:42:46.478Z,80.09
2023-01-29T05:43:48.133Z,80.40
2023-01-29T05:44:49.809Z,80.06
2023-01-29T05:45:55.262Z,79.85
2023-01-29T05:46:56.942Z,80.10
2023-01-29T05:47:59.136Z,79.80
2023-01-29T05:49:00.738Z,79.54
2023-01-29T05:50:02.342Z,79.66
2023-01-29T05:51:04.526Z,79.48
2023-01-29T05:52:06.223Z,79.59
2023-01-29T05:53:09.055Z,79.47
2023-01-29T05:54:12.725Z,79.55
2023-01-29T05:55:14.392Z,79.50
2023-01-29T05:56:16.027Z,79.60
2023-01-29T05:57:17.621Z,79.60
2023-01-29T05:58:19.839Z,79.77
2023-01-29T05:59:21.591Z,79.80
2023-01-29T06:00:23.415Z,79.78
2023-01-29T06:01:25.693Z,80.14
2023-01-29T06:02:30.408Z,80.23
2023-01-29T06:03:32.007Z,80.18
2023-01-29T06:04:33.666Z,80.14
2023-01-29T06:05:39.147Z,80.41
2023-01-29T06:06:41.422Z,80.41
2023-01-29T06:07:45.495Z,80.49
2023-01-29T06:08:47.297Z,80.54
2023-01-29T06:09:48.963Z,80.49
2023-01-29T06:10:50.544Z,80.21
2023-01-29T06:11:52.135Z,80.18
2023-01-29T06:12:53.796Z,80.04
2023-01-29T06:13:55.483Z,80.34
2023-01-29T06:14:57.137Z,80.39
2023-01-29T06:15:58.808Z,80.38
2023-01-29T06:17:00.495Z,80.36
2023-01-29T06:18:02.202Z,80.39
2023-01-29T06:19:03.816Z,80.59
2023-01-29T06:20:06.062Z,80.02
2023-01-29T06:21:09.751Z,80.14
2023-01-29T06:22:11.360Z,80.44
2023-01-29T06:23:12.953Z,80.26
2023-01-29T06:24:14.743Z,80.15
2023-01-29T06:25:16.494Z,79.99
2023-01-29T06:26:18.173Z,79.85
2023-01-29T06:27:19.797Z,79.98
2023-01-29T06:28:21.407Z,79.98
2023-01-29T06:29:23.060Z,79.99
2023-01-29T06:30:24.725Z,79.90
2023-01-29T06:31:38.208Z,80.06
2023-01-29T06:32:40.801Z,79.89
2023-01-29T06:33:42.453Z,79.86
2023-01-29T06:34:44.089Z,80.14
2023-01-29T06:35:45.687Z,80.31
2023-01-29T06:36:47.388Z,80.33
2023-01-29T06:37:49.071Z,80.40
2023-01-29T06:38:50.675Z,80.11
2023-01-29T06:39:52.316Z,80.26
2023-01-29T06:40:53.971Z,80.07
2023-01-29T06:41:55.637Z,80.17
2023-01-29T06:42:57.297Z,80.20
2023-01-29T06:43:58.932Z,80.46
2023-01-29T06:45:00.532Z,80.47
2023-01-29T06:46:02.261Z,80.20
2023-01-29T06:47:03.942Z,80.35
2023-01-29T06:48:05.854Z,80.55
2023-01-29T06:49:07.436Z,80.51
2023-01-29T06:50:09.685Z,80.24
2023-01-29T06:51:11.331Z,80.43
2023-01-29T06:52:12.973Z,80.65
2023-01-29T06:53:14.578Z,80.44
2023-01-29T06:54:16.167Z,80.58
2023-01-29T06:55:17.820Z,80.61
2023-01-29T06:56:19.464Z,80.45
2023-01-29T06:57:21.071Z,80.43
2023-01-29T06:58:22.662Z,80.45
2023-01-29T06:59:24.275Z,80.13
2023-01-29T07:00:25.926Z,80.08
2023-01-29T07:01:36.142Z,80.08
2023-01-29T07:02:38.147Z,79.98
2023-01-29T07:03:41.583Z,80.05
2023-01-29T07:04:43.375Z,79.97
2023-01-29T07:05:53.018Z,79.89
2023-01-29T07:06:54.820Z,80.20
2023-01-29T07:07:56.501Z,80.27
2023-01-29T07:08:58.138Z,80.37
2023-01-29T07:09:59.855Z,80.21
2023-01-29T07:11:01.658Z,80.36
2023-01-29T07:12:04.643Z,80.71
2023-01-29T07:13:06.298Z,80.77
2023-01-29T07:14:08.044Z,80.59
2023-01-29T07:15:10.029Z,80.89
2023-01-29T07:16:11.631Z,80.87
2023-01-29T07:17:13.288Z,81.05
2023-01-29T07:18:14.916Z,81.11
2023-01-29T07:19:16.810Z,80.59
2023-01-29T07:20:18.937Z,80.28
2023-01-29T07:21:20.725Z,80.29
2023-01-29T07:22:22.348Z,80.02
2023-01-29T07:23:23.985Z,80.07
2023-01-29T07:24:25.680Z,79.94
2023-01-29T07:25:27.404Z,80.18
2023-01-29T07:26:29.174Z,79.74
2023-01-29T07:27:30.780Z,79.57
2023-01-29T07:28:32.398Z,79.55
2023-01-29T07:29:34.041Z,79.62
2023-01-29T07:30:35.911Z,78.99
2023-01-29T07:31:37.633Z,79.28
2023-01-29T07:32:39.418Z,79.50
2023-01-29T07:33:43.292Z,79.75
2023-01-29T07:34:44.902Z,79.58
2023-01-29T07:35:46.507Z,79.66
2023-01-29T07:36:48.127Z,79.54
2023-01-29T07:37:50.446Z,79.15
2023-01-29T07:38:52.095Z,79.25
2023-01-29T07:39:53.747Z,79.33
2023-01-29T07:40:55.493Z,79.35
2023-01-29T07:41:57.225Z,79.04
2023-01-29T07:43:00.005Z,78.88
2023-01-29T07:44:01.620Z,78.68
2023-01-29T07:45:03.259Z,78.88
2023-01-29T07:46:05.123Z,78.65
2023-01-29T07:47:06.830Z,78.45
2023-01-29T07:48:11.058Z,78.19
2023-01-29T07:49:12.653Z,78.17
2023-01-29T07:50:14.412Z,78.13
2023-01-29T07:51:18.226Z,78.05
2023-01-29T07:52:22.193Z,77.98
2023-01-29T07:53:24.032Z,77.88
2023-01-29T07:54:25.685Z,78.18
2023-01-29T07:55:27.332Z,77.94
2023-01-29T07:56:29.004Z,78.15
2023-01-29T07:57:30.714Z,78.48
2023-01-29T07:58:32.974Z,78.37
2023-01-29T07:59:35.517Z,78.24
2023-01-29T08:00:37.164Z,78.28
2023-01-29T08:01:38.780Z,78.33
2023-01-29T08:02:41.357Z,78.44
2023-01-29T08:03:44.255Z,78.71
2023-01-29T08:04:45.871Z,78.62
2023-01-29T08:05:48.002Z,78.27
2023-01-29T08:06:50.360Z,78.09
2023-01-29T08:08:06.223Z,77.53
2023-01-29T08:09:08.912Z,77.39
2023-01-29T08:10:11.187Z,77.60
2023-01-29T08:11:12.904Z,77.86
2023-01-29T08:12:14.575Z,77.55
2023-01-29T08:13:16.188Z,77.43
2023-01-29T08:14:17.864Z,77.69
2023-01-29T08:15:19.452Z,77.83
2023-01-29T08:16:21.085Z,77.64
2023-01-29T08:17:22.755Z,77.73
2023-01-29T08:18:24.380Z,77.78
2023-01-29T08:19:25.982Z,77.30
2023-01-29T08:20:27.640Z,77.65
2023-01-29T08:21:29.278Z,78.22
2023-01-29T08:22:31.013Z,77.81
2023-01-29T08:23:32.659Z,77.90
2023-01-29T08:24:47.679Z,78.15
2023-01-29T08:25:55.934Z,78.07
2023-01-29T08:26:57.598Z,78.07
2023-01-29T08:27:59.524Z,78.01
2023-01-29T08:29:01.138Z,77.47
2023-01-29T08:30:02.888Z,77.01
2023-01-29T08:31:05.207Z,77.29
2023-01-29T08:32:10.270Z,77.67
2023-01-29T08:33:11.947Z,77.33
2023-01-29T08:34:13.565Z,77.23
2023-01-29T08:35:15.171Z,77.48
2023-01-29T08:36:16.944Z,77.25
2023-01-29T08:37:18.575Z,77.20
2023-01-29T08:38:20.235Z,77.71
2023-01-29T08:39:21.884Z,77.28
2023-01-29T08:40:23.619Z,77.79
2023-01-29T08:41:25.331Z,77.33
2023-01-29T08:42:26.926Z,77.30
2023-01-29T08:43:28.572Z,77.30
2023-01-29T08:44:30.225Z,76.75
2023-01-29T08:45:35.941Z,76.76
2023-01-29T08:46:37.555Z,76.77
2023-01-29T08:47:39.196Z,76.42
2023-01-29T08:48:40.919Z,76.33
2023-01-29T08:49:42.512Z,76.88
2023-01-29T08:50:44.155Z,76.65
2023-01-29T08:51:45.772Z,76.60
2023-01-29T08:52:47.373Z,76.77
2023-01-29T08:53:50.607Z,76.44
2023-01-29T08:54:52.288Z,76.41
2023-01-29T08:55:54.054Z,76.49
2023-01-29T08:56:55.691Z,76.36
2023-01-29T08:57:57.453Z,76.31
2023-01-29T08:58:59.250Z,76.44
2023-01-29T09:00:00.975Z,76.21
2023-01-29T09:01:09.566Z,76.26
2023-01-29T09:02:11.436Z,76.73
2023-01-29T09:03:13.090Z,76.87
2023-01-29T09:04:14.714Z,76.59
2023-01-29T09:05:16.739Z,76.87
2023-01-29T09:06:18.820Z,76.47
2023-01-29T09:07:21.883Z,76.90
2023-01-29T09:08:23.476Z,77.15
2023-01-29T09:09:25.105Z,77.42
2023-01-29T09:10:26.958Z,77.29
2023-01-29T09:11:28.572Z,77.24
2023-01-29T09:12:30.189Z,77.34
2023-01-29T09:13:31.867Z,76.85
2023-01-29T09:14:33.474Z,76.87
2023-01-29T09:15:35.216Z,76.90
2023-01-29T09:16:36.976Z,76.99
2023-01-29T09:17:38.575Z,77.07
2023-01-29T09:18:40.171Z,76.87
2023-01-29T09:19:41.834Z,75.99
2023-01-29T09:20:43.586Z,75.79
2023-01-29T09:21:45.242Z,75.69
2023-01-29T09:22:47.124Z,75.63
2023-01-29T09:23:48.751Z,75.58
2023-01-29T09:24:50.362Z,75.14
2023-01-29T09:25:52.025Z,74.99
2023-01-29T09:26:53.667Z,75.08
2023-01-29T09:27:55.334Z,75.60
2023-01-29T09:28:56.948Z,75.38
2023-01-29T09:29:58.663Z,75.58
2023-01-29T09:31:03.586Z,76.02
2023-01-29T09:32:05.594Z,76.02
2023-01-29T09:33:08.755Z,75.83
2023-01-29T09:34:10.414Z,75.79
2023-01-29T09:35:12.068Z,76.13
2023-01-29T09:36:14.632Z,76.40
2023-01-29T09:37:17.736Z,76.37
2023-01-29T09:38:19.473Z,75.47
2023-01-29T09:39:21.107Z,74.96
2023-01-29T09:40:38.561Z,75.59
2023-01-29T09:42:08.566Z,75.38
2023-01-29T09:43:18.440Z,75.24
2023-01-29T09:44:53.874Z,75.43
2023-01-29T09:45:58.271Z,75.43
2023-01-29T09:47:00.603Z,75.59
2023-01-29T09:48:03.286Z,75.08
2023-01-29T09:49:25.961Z,74.62
2023-01-29T09:50:37.562Z,74.77
2023-01-29T09:51:41.487Z,75.08
2023-01-29T09:52:46.805Z,75.10
2023-01-29T09:54:17.196Z,75.37
2023-01-29T09:55:42.414Z,75.58
2023-01-29T09:56:44.053Z,75.69
2023-01-29T09:57:58.477Z,74.74
2023-01-29T09:59:01.710Z,74.63
2023-01-29T10:00:03.838Z,74.51
2023-01-29T10:01:28.025Z,74.03
2023-01-29T10:02:46.458Z,73.77
2023-01-29T10:04:38.455Z,74.27
2023-01-29T10:05:45.807Z,74.29
2023-01-29T10:06:58.839Z,74.27
2023-01-29T10:08:13.444Z,74.22
2023-01-29T10:10:06.318Z,73.88
2023-01-29T10:11:33.145Z,73.82
2023-01-29T10:12:43.832Z,74.13
2023-01-29T10:14:02.743Z,74.46
2023-01-29T10:15:20.027Z,74.49
2023-01-29T10:16:54.558Z,74.74
2023-01-29T10:18:05.064Z,73.74
2023-01-29T10:19:27.865Z,73.82
2023-01-29T10:20:54.376Z,73.95
2023-01-29T10:22:15.355Z,74.27
2023-01-29T10:23:28.879Z,73.67
2023-01-29T10:24:53.839Z,73.44
2023-01-29T10:25:55.717Z,73.49
2023-01-29T10:26:57.380Z,73.49
2023-01-29T10:27:59.163Z,73.25
2023-01-29T10:29:00.856Z,73.01
2023-01-29T10:30:04.232Z,72.85
2023-01-29T10:31:28.068Z,72.57
2023-01-29T10:32:29.821Z,72.79
2023-01-29T10:33:49.284Z,73.08
2023-01-29T10:35:03.841Z,73.42
2023-01-29T10:36:08.280Z,73.36
2023-01-29T10:37:22.793Z,73.47
2023-01-29T10:38:45.939Z,73.31
2023-01-29T10:39:47.597Z,73.10
2023-01-29T10:41:12.084Z,73.67
2023-01-29T10:42:24.503Z,73.17
2023-01-29T10:43:44.229Z,73.24
2023-01-29T10:44:58.463Z,72.68
2023-01-29T10:46:09.794Z,72.04
2023-01-29T10:47:41.173Z,71.85
2023-01-29T10:48:51.854Z,71.77
2023-01-29T10:50:11.543Z,71.11
2023-01-29T10:52:08.336Z,71.39
2023-01-29T10:53:32.254Z,71.32
2023-01-29T10:54:54.709Z,70.72
2023-01-29T10:56:05.815Z,71.19
2023-01-29T10:57:12.455Z,71.06
2023-01-29T10:58:26.116Z,70.62
2023-01-29T10:59:49.741Z,70.99
2023-01-29T11:00:51.663Z,70.59
2023-01-29T11:01:59.338Z,69.99
2023-01-29T11:03:01.124Z,69.77
2023-01-29T11:04:04.274Z,69.49
2023-01-29T11:05:29.570Z,69.18
2023-01-29T11:06:35.380Z,69.96
2023-01-29T11:07:36.980Z,69.90
2023-01-29T11:08:41.149Z,70.08
2023-01-29T11:09:46.621Z,70.17
2023-01-29T11:10:59.663Z,69.66
2023-01-29T11:12:11.581Z,69.77
2023-01-29T11:13:14.567Z,69.87
2023-01-29T11:14:35.214Z,70.50
2023-01-29T11:15:36.880Z,70.00
2023-01-29T11:16:45.873Z,70.27
2023-01-29T11:18:15.991Z,69.32
2023-01-29T11:19:17.716Z,68.97
2023-01-29T11:20:27.176Z,69.13
2023-01-29T11:21:29.409Z,69.48
2023-01-29T11:22:31.076Z,69.15
2023-01-29T11:23:33.617Z,69.08
2023-01-29T11:24:35.219Z,68.89
2023-01-29T11:25:36.993Z,69.37
2023-01-29T11:26:40.047Z,69.04
2023-01-29T11:27:49.706Z,69.94
2023-01-29T11:28:51.789Z,70.20
2023-01-29T11:29:53.794Z,69.74
2023-01-29T11:30:55.727Z,69.49
2023-01-29T11:31:58.165Z,70.24
2023-01-29T11:33:09.763Z,70.48
2023-01-29T11:34:21.020Z,70.80
2023-01-29T11:35:24.862Z,68.63
2023-01-29T11:36:38.301Z,67.98
2023-01-29T11:37:41.122Z,66.33
2023-01-29T11:38:42.769Z,66.55
2023-01-29T11:39:47.198Z,66.79
2023-01-29T11:40:48.887Z,66.55
2023-01-29T11:41:55.479Z,67.02
2023-01-29T11:42:57.375Z,67.75
2023-01-29T11:43:59.921Z,67.98
2023-01-29T11:45:01.593Z,68.60
2023-01-29T11:46:07.361Z,68.45
2023-01-29T11:47:14.810Z,68.53
2023-01-29T11:48:21.105Z,67.84
2023-01-29T11:49:34.186Z,68.43
2023-01-29T11:50:36.091Z,69.08
2023-01-29T11:51:37.879Z,69.60
2023-01-29T11:52:41.042Z,69.09
2023-01-29T11:53:44.792Z,69.70
2023-01-29T11:54:50.879Z,69.60
2023-01-29T11:55:52.589Z,69.80
2023-01-29T11:56:54.612Z,69.10
2023-01-29T11:58:11.604Z,68.62
2023-01-29T11:59:37.432Z,68.28
2023-01-29T12:00:39.632Z,68.45
2023-01-29T12:01:41.305Z,69.21
2023-01-29T12:02:44.222Z,68.43
2023-01-29T12:03:52.181Z,68.64
2023-01-29T12:05:07.103Z,69.02
2023-01-29T12:06:16.131Z,69.52
2023-01-29T12:07:18.378Z,69.48
2023-01-29T12:08:22.953Z,69.33
2023-01-29T12:09:29.696Z,68.53
2023-01-29T12:10:39.375Z,68.84
2023-01-29T12:11:41.288Z,69.54
2023-01-29T12:12:43.420Z,69.67
2023-01-29T12:13:45.276Z,69.28
2023-01-29T12:14:47.109Z,68.91
2023-01-29T12:15:49.050Z,68.37
2023-01-29T12:17:15.263Z,68.44
2023-01-29T12:18:20.804Z,69.53
2023-01-29T12:19:43.800Z,69.46
2023-01-29T12:20:48.564Z,69.56
2023-01-29T12:21:58.272Z,69.50
2023-01-29T12:23:11.195Z,69.02
2023-01-29T12:24:41.894Z,69.12
2023-01-29T12:26:09.784Z,68.60
2023-01-29T12:27:22.502Z,68.86
2023-01-29T12:28:32.029Z,69.02
2023-01-29T12:29:48.834Z,69.17
2023-01-29T12:30:59.362Z,69.21
2023-01-29T12:32:07.122Z,68.18
2023-01-29T12:33:27.246Z,68.66
2023-01-29T12:34:39.575Z,68.89
2023-01-29T12:35:54.743Z,68.70
2023-01-29T12:37:19.921Z,69.04
2023-01-29T12:38:23.172Z,68.98
2023-01-29T12:39:25.154Z,68.89
2023-01-29T12:40:30.093Z,68.96
2023-01-29T12:41:40.960Z,69.61
2023-01-29T12:42:45.155Z,69.38
2023-01-29T12:43:48.740Z,69.09
2023-01-29T12:44:57.895Z,68.64
2023-01-29T12:45:59.649Z,68.17
2023-01-29T12:47:02.337Z,67.71
2023-01-29T12:48:09.116Z,67.51
2023-01-29T12:49:14.605Z,67.41
2023-01-29T12:50:22.281Z,66.66
2023-01-29T12:51:45.001Z,67.19
2023-01-29T12:52:50.142Z,66.55
2023-01-29T12:53:57.659Z,66.58
2023-01-29T12:55:29.675Z,66.63
2023-01-29T12:57:04.537Z,65.82
2023-01-29T12:58:20.149Z,65.20
2023-01-29T12:59:42.959Z,66.16
2023-01-29T13:00:46.331Z,66.01
2023-01-29T13:01:56.555Z,66.29
2023-01-29T13:03:23.411Z,65.93
2023-01-29T13:04:38.349Z,65.54
2023-01-29T13:06:06.133Z,66.08
2023-01-29T13:07:18.974Z,66.40
2023-01-29T13:08:39.788Z,66.16
2023-01-29T13:09:43.787Z,65.44
2023-01-29T13:10:48.480Z,65.75
2023-01-29T13:12:07.872Z,66.50
2023-01-29T13:13:16.783Z,66.83
2023-01-29T13:14:21.055Z,65.73
2023-01-29T13:15:26.639Z,65.90
2023-01-29T13:16:30.929Z,66.01
2023-01-29T13:17:41.460Z,66.17
2023-01-29T13:18:55.184Z,66.19
2023-01-29T13:19:59.773Z,65.78
2023-01-29T13:21:01.693Z,65.77
2023-01-29T13:22:05.583Z,64.63
2023-01-29T13:23:18.491Z,65.10
2023-01-29T13:24:21.891Z,64.62
2023-01-29T13:25:23.718Z,65.36
2023-01-29T13:26:26.752Z,65.18
2023-01-29T13:27:37.224Z,64.80
2023-01-29T13:28:39.416Z,64.55
2023-01-29T13:29:41.462Z,64.86
2023-01-29T13:30:43.770Z,64.97
2023-01-29T13:31:49.599Z,65.32
2023-01-29T13:32:52.457Z,65.58
2023-01-29T13:33:58.182Z,65.28
2023-01-29T13:35:12.888Z,65.18
2023-01-29T13:36:16.640Z,65.57
2023-01-29T13:37:30.005Z,65.83
2023-01-29T13:38:33.599Z,66.45
2023-01-29T13:39:44.700Z,66.42
2023-01-29T13:40:49.410Z,66.04
2023-01-29T13:41:51.624Z,66.45
2023-01-29T13:42:54.446Z,66.79
2023-01-29T13:43:56.118Z,68.09
2023-01-29T13:44:58.244Z,68.64
2023-01-29T13:46:00.133Z,68.16
2023-01-29T13:47:12.048Z,67.68
2023-01-29T13:48:28.928Z,67.58
2023-01-29T13:49:35.977Z,66.90
2023-01-29T13:50:39.251Z,66.93
2023-01-29T13:51:40.891Z,67.27
2023-01-29T13:52:46.240Z,67.73
2023-01-29T13:53:57.782Z,68.22
2023-01-29T13:55:20.106Z,68.78
2023-01-29T13:57:00.670Z,68.62
2023-01-29T13:58:03.542Z,68.58
2023-01-29T13:59:05.973Z,68.62
2023-01-29T14:00:22.661Z,68.56
2023-01-29T14:02:04.136Z,68.36
2023-01-29T14:03:11.363Z,68.49
2023-01-29T14:04:19.028Z,68.15
2023-01-29T14:05:30.236Z,68.56
2023-01-29T14:06:40.559Z,67.98
2023-01-29T14:07:45.027Z,67.88
2023-01-29T14:08:47.557Z,68.21
2023-01-29T14:09:49.263Z,68.26
2023-01-29T14:11:13.415Z,68.44
2023-01-29T14:12:25.757Z,68.57
2023-01-29T14:13:28.807Z,68.87
2023-01-29T14:14:49.020Z,68.96
2023-01-29T14:15:56.983Z,68.37
2023-01-29T14:17:01.955Z,67.51
2023-01-29T14:18:18.677Z,68.00
2023-01-29T14:19:20.787Z,68.10
2023-01-29T14:20:27.687Z,68.58
2023-01-29T14:21:35.222Z,69.09
2023-01-29T14:22:38.146Z,69.42
2023-01-29T14:23:57.239Z,69.22
2023-01-29T14:25:02.110Z,69.70
2023-01-29T14:26:26.322Z,69.83
2023-01-29T14:27:28.286Z,70.16
2023-01-29T14:28:31.032Z,69.99